UTAM

Details ICAO UTAM (MYP)
Name MARY
Region Tajikistan, Turkmenistan and Uzbekistan
Timezone Asia/Ashgabat (UTC+5.0)
Plans Departing 9
Arriving 14
Stats Elevation 728 ft / 222 m (AMSL)
Location 37.619514° 61.896806°
Runways 2
Magnetic Variation 4.646° E
Sunrise 2017-12-15 03:01:27 UTC / 2017-12-15 08:01:27 Local
Sunset 2017-12-15 12:36:19 UTC / 2017-12-15 17:36:19 Local
Advertisement - Login to hide

Runways

ID Width Length Bearing (true) Bearing (mag) Surface Threshold Offset Overrun Length
18L 147 ft / 45 m 9,126 ft / 2,782 m 178.49° 173.84° Concrete 0 ft / 0 m 0 ft / 0 m
18R 98 ft / 30 m 8,011 ft / 2,442 m 178.28° 173.63° Concrete 0 ft / 0 m 0 ft / 0 m
36L 98 ft / 30 m 8,011 ft / 2,442 m 358.28° 353.63° Concrete 0 ft / 0 m 0 ft / 0 m
36R 147 ft / 45 m 9,126 ft / 2,782 m 358.49° 353.84° Concrete 0 ft / 0 m 0 ft / 0 m

Map

Weather


0- 5 10 15 20 25 30 35+ Temperature / ° C

Clouds and Precipitation
Forecast for 2017-12-15 00:00 UTC. Updated 2 hours ago

Ground ~20,000 ft ~40,000 ft Winds

METAR

UTAM 150100Z 06008KT 1500 BR OVC003 M05/M06 Q1028 TEMPO 0600 FZFG VV002

TAF

TAF UTAM 142230Z 1500/1524 10012KT 0900 FZFG OVC003 530002 TEMPO 1500/1506 VRB04KT 0600 FZFG VV002 BECMG 1506/1507 2000 BR OVC004 BECMG 1507/1508 5000 SCT007 BECMG 1515/1517 2000 BR BKN005 TEMPO 1517/1524 VRB04KT 0800 FZFG VV003

Frequencies

Tower 122.20 MHz TWR
Approach 124.00 MHz RADAR
Warning: Do not use this data for real-world aviation or navigation. No guarantee of current accuracy is given.